Time;durP1;ratioP1;P1;durP2;ratioP2;P2;SDS_P1;SDS_P2;PMS_P1;PMS_P2;Temp;Humidity;BMP_temperature;BMP_pressure;BME280_temperature;BME280_humidity;BME280_pressure;Samples;Min_cycle;Max_cycle;Signal;HPM_P1;HPM_P2
2024/01/31 00:01:54;;;;;;;7.80;4.30;;;;;;;3.11;43.98;98045.66;108765;1273;113640;-76
2024/01/31 00:04:25;;;;;;;7.00;3.60;;;;;;;3.06;44.04;98050.63;108865;1272;25284;-75
2024/01/31 00:07:02;;;;;;;9.80;3.80;;;;;;;3.03;44.20;98058.15;108891;1266;22557;-75
2024/01/31 00:09:36;;;;;;;10.00;5.40;;;;;;;2.96;44.27;98059.37;108889;1266;25019;-75
2024/01/31 00:12:10;;;;;;;8.60;3.90;;;;;;;2.94;44.06;98060.92;108833;1273;26605;-75
2024/01/31 00:14:43;;;;;;;6.80;4.10;;;;;;;2.97;43.92;98059.14;108946;1272;25076;-76
2024/01/31 00:17:15;;;;;;;10.30;4.20;;;;;;;2.98;43.94;98068.73;108922;1266;22539;-76
2024/01/31 00:19:48;;;;;;;11.30;5.00;;;;;;;2.95;43.85;98065.23;108987;1272;25427;-76
2024/01/31 00:22:23;;;;;;;7.20;3.70;;;;;;;2.92;43.91;98064.83;108957;1273;25951;-76
2024/01/31 00:24:54;;;;;;;5.80;3.30;;;;;;;2.88;44.25;98065.38;108972;1273;22533;-76
2024/01/31 00:27:28;;;;;;;10.00;5.20;;;;;;;2.83;44.28;98065.07;108859;1273;24231;-76
2024/01/31 00:30:01;;;;;;;8.30;4.90;;;;;;;2.83;44.30;98065.99;108861;1273;22517;-76
2024/01/31 00:32:34;;;;;;;8.70;4.20;;;;;;;2.81;44.34;98055.94;108879;1272;22529;-75
2024/01/31 00:35:06;;;;;;;8.20;5.10;;;;;;;2.79;44.48;98057.02;108877;1269;22539;-75
2024/01/31 00:37:37;;;;;;;9.90;4.40;;;;;;;2.76;44.74;98053.61;108877;1273;22539;-75
2024/01/31 00:40:10;;;;;;;6.30;3.70;;;;;;;2.74;44.57;98054.21;108915;1272;22525;-75
2024/01/31 00:42:44;;;;;;;8.10;3.90;;;;;;;2.76;44.49;98052.40;108921;1272;25427;-75
2024/01/31 00:45:20;;;;;;;9.00;4.10;;;;;;;2.77;44.48;98057.81;108864;1266;22502;-76
2024/01/31 00:47:52;;;;;;;7.20;4.00;;;;;;;2.78;44.47;98061.23;108857;1272;22523;-75
2024/01/31 00:50:27;;;;;;;6.40;3.40;;;;;;;2.79;44.49;98060.39;108867;1266;22548;-75
2024/01/31 00:52:58;;;;;;;9.20;4.00;;;;;;;2.78;44.47;98061.31;108879;1272;23892;-75
2024/01/31 00:55:30;;;;;;;10.00;6.10;;;;;;;2.75;44.58;98058.20;108858;1265;22540;-75
2024/01/31 00:58:03;;;;;;;7.40;4.50;;;;;;;2.70;44.76;98063.98;108869;1272;24090;-75
2024/01/31 01:00:35;;;;;;;10.20;5.40;;;;;;;2.67;44.68;98060.06;108892;1272;23020;-75
2024/01/31 01:03:10;;;;;;;9.70;4.70;;;;;;;2.70;44.67;98059.43;108843;1266;22538;-75
2024/01/31 01:05:45;;;;;;;9.80;4.90;;;;;;;2.71;44.81;98062.81;108893;1272;23258;-75
2024/01/31 01:08:22;;;;;;;7.30;3.90;;;;;;;2.65;44.97;98069.74;108907;1272;22480;-76
2024/01/31 01:10:55;;;;;;;9.80;4.50;;;;;;;2.58;44.90;98064.74;108839;1272;22532;-75
2024/01/31 01:13:26;;;;;;;9.60;3.20;;;;;;;2.54;45.10;98062.66;108808;1269;22524;-75
2024/01/31 01:15:58;;;;;;;8.40;4.60;;;;;;;2.48;45.09;98062.98;108877;1272;22625;-75
2024/01/31 01:18:29;;;;;;;13.60;3.90;;;;;;;2.38;45.43;98063.10;108859;1272;25277;-76
2024/01/31 01:21:03;;;;;;;8.00;4.40;;;;;;;2.31;45.54;98061.61;108856;1269;22521;-76
2024/01/31 01:23:36;;;;;;;8.40;4.70;;;;;;;2.32;45.72;98059.41;108873;1269;22554;-76
2024/01/31 01:26:13;;;;;;;6.80;3.80;;;;;;;2.31;45.60;98057.30;108852;1273;22523;-75
2024/01/31 01:28:45;;;;;;;8.60;5.20;;;;;;;2.32;45.64;98053.29;108854;1272;24183;-76
2024/01/31 01:31:19;;;;;;;7.70;4.10;;;;;;;2.31;45.75;98051.31;108873;1272;25242;-75
2024/01/31 01:33:52;;;;;;;9.30;4.00;;;;;;;2.28;45.79;98058.58;108893;1269;25296;-75
2024/01/31 01:36:23;;;;;;;7.30;3.40;;;;;;;2.38;45.57;98060.13;108853;1272;22559;-76
2024/01/31 01:38:54;;;;;;;8.10;4.60;;;;;;;2.52;44.89;98062.17;108852;1269;22773;-75
2024/01/31 01:41:28;;;;;;;9.10;4.90;;;;;;;2.57;44.93;98065.42;108897;1272;22520;-76
2024/01/31 01:44:01;;;;;;;7.80;4.40;;;;;;;2.53;44.99;98069.34;108824;1272;22701;-75
2024/01/31 01:46:37;;;;;;;7.70;4.40;;;;;;;2.35;45.31;98070.61;108913;1272;22455;-76
2024/01/31 01:49:11;;;;;;;4.70;2.70;;;;;;;2.09;45.62;98067.83;108845;1266;22528;-75
2024/01/31 01:51:44;;;;;;;7.30;4.10;;;;;;;2.05;45.76;98064.98;108825;1272;24176;-76
2024/01/31 01:54:15;;;;;;;7.40;4.50;;;;;;;2.13;45.73;98058.00;108923;1272;22701;-76
2024/01/31 01:56:53;;;;;;;7.70;4.30;;;;;;;2.16;45.83;98060.17;108878;1269;23605;-75
2024/01/31 01:59:24;;;;;;;8.20;3.60;;;;;;;2.10;45.79;98059.42;108929;1269;22509;-75
2024/01/31 02:02:05;;;;;;;9.20;4.60;;;;;;;1.90;46.19;98049.80;108881;1273;24165;-75
2024/01/31 02:04:40;;;;;;;8.80;4.10;;;;;;;1.69;46.66;98044.48;108868;1269;22660;-75
2024/01/31 02:07:15;;;;;;;8.30;3.90;;;;;;;1.55;47.10;98041.77;108900;1272;22921;-75
2024/01/31 02:09:54;;;;;;;7.20;4.20;;;;;;;1.51;47.21;98044.05;108859;1269;24155;-75
2024/01/31 02:12:27;;;;;;;8.00;4.00;;;;;;;1.55;47.19;98045.35;108819;1267;22527;-75
2024/01/31 02:15:00;;;;;;;8.30;4.40;;;;;;;1.57;47.35;98050.50;108865;1273;22521;-75
2024/01/31 02:17:33;;;;;;;7.10;3.60;;;;;;;1.49;47.46;98049.58;108902;1273;22524;-75
2024/01/31 02:20:04;;;;;;;5.70;3.40;;;;;;;1.41;47.71;98051.64;108856;1268;22520;-75
2024/01/31 02:22:37;;;;;;;7.20;4.40;;;;;;;1.39;47.89;98051.92;108848;1269;22524;-75
2024/01/31 02:25:19;;;;;;;5.80;2.40;;;;;;;1.41;47.87;98052.47;108850;1273;22525;-75
2024/01/31 02:27:55;;;;;;;7.90;4.10;;;;;;;1.58;47.44;98048.48;108926;1269;25409;-75
2024/01/31 02:30:26;;;;;;;8.00;5.00;;;;;;;1.67;47.39;98047.36;108869;1273;22689;-75
2024/01/31 02:32:57;;;;;;;8.00;4.30;;;;;;;1.66;47.54;98045.77;108842;1273;24209;-75
2024/01/31 02:35:30;;;;;;;8.10;3.80;;;;;;;1.59;47.64;98043.27;108893;1273;23833;-75
2024/01/31 02:38:04;;;;;;;7.70;4.00;;;;;;;1.60;47.67;98047.70;108848;1273;22828;-75
2024/01/31 02:40:40;;;;;;;6.70;3.90;;;;;;;1.61;47.68;98045.46;108895;1273;22443;-75
2024/01/31 02:43:16;;;;;;;8.40;3.70;;;;;;;1.62;47.83;98045.42;108872;1269;22530;-75
2024/01/31 02:45:49;;;;;;;7.20;3.70;;;;;;;1.57;47.84;98045.98;108847;1273;22516;-75
2024/01/31 02:48:20;;;;;;;8.50;3.50;;;;;;;1.61;47.44;98040.75;108845;1273;22837;-75
2024/01/31 02:50:56;;;;;;;5.60;2.50;;;;;;;1.74;47.22;98040.77;108864;1269;22516;-75
2024/01/31 02:53:30;;;;;;;9.00;4.80;;;;;;;1.81;47.11;98040.52;108853;1273;23323;-75
2024/01/31 02:56:03;;;;;;;7.00;3.80;;;;;;;1.77;47.27;98037.61;108866;1268;22524;-76
2024/01/31 02:58:34;;;;;;;4.90;2.30;;;;;;;1.76;47.29;98038.20;108917;1273;25420;-75
2024/01/31 03:01:10;;;;;;;6.40;3.30;;;;;;;1.79;47.18;98037.74;108886;1269;22644;-75
2024/01/31 03:03:40;;;;;;;8.50;3.70;;;;;;;1.80;47.00;98041.74;108871;1273;25952;-75
2024/01/31 03:06:14;;;;;;;6.30;3.70;;;;;;;1.84;47.02;98043.59;108878;1272;22514;-75
2024/01/31 03:08:46;;;;;;;8.30;3.90;;;;;;;1.82;47.08;98042.59;108913;1273;25281;-75
2024/01/31 03:11:17;;;;;;;10.50;4.50;;;;;;;1.83;47.16;98038.96;108921;1273;22518;-75
2024/01/31 03:13:50;;;;;;;7.70;4.30;;;;;;;1.78;47.11;98037.85;108887;1272;22545;-75
2024/01/31 03:16:21;;;;;;;7.60;4.20;;;;;;;1.74;47.41;98037.39;108899;1269;25453;-75
2024/01/31 03:18:57;;;;;;;7.60;4.30;;;;;;;1.70;47.36;98035.83;108871;1269;22552;-75
2024/01/31 03:21:28;;;;;;;8.00;4.70;;;;;;;1.65;47.34;98039.30;108887;1272;23679;-75
2024/01/31 03:24:01;;;;;;;7.10;3.90;;;;;;;1.61;47.65;98044.29;108845;1273;24977;-75
2024/01/31 03:26:32;;;;;;;6.20;3.40;;;;;;;1.62;47.64;98051.86;108893;1272;22584;-75
2024/01/31 03:29:08;;;;;;;6.80;4.30;;;;;;;1.70;47.51;98054.31;108877;1273;22521;-75
2024/01/31 03:31:41;;;;;;;7.60;3.90;;;;;;;1.83;47.24;98054.52;108820;1267;22534;-76
2024/01/31 03:34:13;;;;;;;8.20;4.70;;;;;;;1.90;47.13;98054.38;108875;1251;22535;-75
2024/01/31 03:36:46;;;;;;;8.40;3.70;;;;;;;1.87;47.16;98058.90;108876;1273;22537;-76
2024/01/31 03:39:22;;;;;;;5.90;3.00;;;;;;;1.87;47.11;98051.91;108882;1273;22581;-76
2024/01/31 03:41:57;;;;;;;8.80;5.00;;;;;;;1.88;47.05;98048.21;108862;1273;25945;-75
2024/01/31 03:44:32;;;;;;;6.90;4.20;;;;;;;1.84;47.27;98049.66;108833;1273;22520;-75
2024/01/31 03:47:06;;;;;;;7.90;4.40;;;;;;;1.82;47.35;98047.65;108868;1272;22524;-75
2024/01/31 03:49:45;;;;;;;7.40;4.40;;;;;;;1.81;47.24;98043.55;108864;1273;22544;-75
2024/01/31 03:52:17;;;;;;;7.60;3.00;;;;;;;1.77;47.39;98043.32;108801;1273;23868;-75
2024/01/31 03:54:50;;;;;;;6.90;3.50;;;;;;;1.73;47.41;98041.92;108900;1273;22521;-75
2024/01/31 03:57:22;;;;;;;9.30;3.90;;;;;;;1.71;47.60;98042.22;108903;1273;22527;-75
2024/01/31 03:59:52;;;;;;;9.20;4.60;;;;;;;1.66;47.49;98048.31;108879;1272;22641;-75
2024/01/31 04:02:24;;;;;;;6.10;3.20;;;;;;;1.63;47.98;98047.23;108848;1267;22946;-75
2024/01/31 04:04:58;;;;;;;8.70;4.20;;;;;;;1.60;48.19;98039.54;108868;1263;22833;-76
2024/01/31 04:07:34;;;;;;;8.10;4.10;;;;;;;1.57;48.32;98049.72;108865;1272;22514;-75
2024/01/31 04:10:06;;;;;;;8.70;4.60;;;;;;;1.61;48.26;98047.10;108992;1272;25427;-75
2024/01/31 04:12:42;;;;;;;5.10;3.40;;;;;;;1.63;48.21;98045.95;108958;1267;22517;-76
2024/01/31 04:15:18;;;;;;;4.50;3.30;;;;;;;1.60;48.52;98051.56;108959;1272;22538;-75
2024/01/31 04:17:51;;;;;;;7.00;3.90;;;;;;;1.57;48.64;98042.89;108941;1272;22828;-75
2024/01/31 04:20:26;;;;;;;8.50;4.00;;;;;;;1.62;48.69;98052.38;108992;1269;23687;-75
2024/01/31 04:22:56;;;;;;;6.40;4.20;;;;;;;1.68;48.37;98045.48;108952;1273;22803;-75
2024/01/31 04:25:28;;;;;;;7.60;3.80;;;;;;;1.69;48.62;98051.13;108983;1269;22693;-75
2024/01/31 04:27:59;;;;;;;8.50;4.30;;;;;;;1.67;48.67;98048.72;108985;1266;22532;-75
2024/01/31 04:30:30;;;;;;;6.90;4.50;;;;;;;1.66;48.81;98053.25;108990;1266;24188;-75
2024/01/31 04:33:20;;;;;;;9.80;4.60;;;;;;;1.61;48.97;98054.02;108968;1269;22729;-75
2024/01/31 04:35:52;;;;;;;8.50;4.20;;;;;;;1.60;49.02;98052.93;108968;1269;22730;-75
2024/01/31 04:38:28;;;;;;;10.60;4.00;;;;;;;1.62;49.24;98057.37;108990;1273;23853;-75
2024/01/31 04:40:59;;;;;;;7.60;3.70;;;;;;;1.60;49.17;98061.00;108975;1273;25439;-75
2024/01/31 04:43:34;;;;;;;7.60;4.90;;;;;;;1.56;49.35;98060.21;108968;1273;23223;-75
2024/01/31 04:46:10;;;;;;;9.80;3.10;;;;;;;1.54;49.36;98062.89;108941;1272;22556;-75
2024/01/31 04:48:48;;;;;;;6.40;4.00;;;;;;;1.55;49.42;98051.55;109014;1272;22524;-75
2024/01/31 04:51:19;;;;;;;6.10;3.80;;;;;;;1.53;49.50;98048.02;108997;1272;22555;-75
2024/01/31 04:53:52;;;;;;;6.00;3.60;;;;;;;1.52;49.71;98051.98;109058;1273;22531;-75
2024/01/31 04:56:27;;;;;;;8.10;4.60;;;;;;;1.47;49.99;98051.02;109081;1273;22536;-75
2024/01/31 04:59:00;;;;;;;9.80;3.80;;;;;;;1.42;50.23;98051.66;108961;1272;22629;-75
2024/01/31 05:01:31;;;;;;;7.10;3.50;;;;;;;1.38;50.39;98049.98;108938;1266;22650;-75
2024/01/31 05:04:04;;;;;;;8.10;4.20;;;;;;;1.35;50.45;98050.64;108878;1273;22577;-75
2024/01/31 05:06:35;;;;;;;8.30;2.90;;;;;;;1.30;50.82;98048.42;108912;1272;22518;-75
2024/01/31 05:09:09;;;;;;;6.20;3.70;;;;;;;1.27;50.72;98055.27;108880;1272;22536;-75
2024/01/31 05:11:41;;;;;;;6.70;3.00;;;;;;;1.26;50.86;98049.73;108875;1269;25233;-76
2024/01/31 05:14:18;;;;;;;7.20;3.30;;;;;;;1.27;50.78;98052.08;108893;1273;23803;-75
2024/01/31 05:16:51;;;;;;;6.00;3.20;;;;;;;1.27;50.73;98049.66;108910;1273;25243;-75
2024/01/31 05:19:22;;;;;;;9.30;4.50;;;;;;;1.27;50.85;98055.08;108822;1269;24158;-75
2024/01/31 05:21:56;;;;;;;8.70;5.10;;;;;;;1.26;51.22;98056.95;108847;1269;22524;-75
2024/01/31 05:24:27;;;;;;;9.20;4.30;;;;;;;1.27;51.17;98054.52;108806;1269;22527;-75
2024/01/31 05:27:03;;;;;;;9.00;4.80;;;;;;;1.32;51.08;98058.61;108853;1273;22520;-75
2024/01/31 05:29:38;;;;;;;9.00;5.00;;;;;;;1.35;51.22;98062.06;108903;1269;22542;-75
2024/01/31 05:32:10;;;;;;;8.50;4.90;;;;;;;1.36;51.27;98068.45;108860;1273;22552;-75
2024/01/31 05:34:44;;;;;;;9.00;4.60;;;;;;;1.35;51.20;98070.58;108806;1272;25377;-75
2024/01/31 05:37:17;;;;;;;8.00;4.50;;;;;;;1.34;51.23;98073.22;108821;1272;22564;-75
2024/01/31 05:39:51;;;;;;;8.00;4.10;;;;;;;1.34;51.13;98076.48;108853;1273;22712;-75
2024/01/31 05:42:22;;;;;;;7.20;4.70;;;;;;;1.39;51.18;98074.86;108840;1273;22605;-75
2024/01/31 05:44:56;;;;;;;9.20;5.00;;;;;;;1.44;51.41;98073.14;108854;1269;22541;-75
2024/01/31 05:47:29;;;;;;;9.80;5.30;;;;;;;1.50;51.14;98076.77;108870;1273;22781;-75
2024/01/31 05:50:03;;;;;;;8.80;4.20;;;;;;;1.59;51.35;98076.64;108849;1273;22525;-75
2024/01/31 05:52:37;;;;;;;8.20;4.40;;;;;;;1.61;51.29;98076.83;108865;1266;25800;-75
2024/01/31 05:55:14;;;;;;;8.90;4.80;;;;;;;1.64;51.06;98076.16;108867;1273;23897;-75
2024/01/31 05:57:52;;;;;;;8.90;4.20;;;;;;;1.66;51.19;98077.95;108862;1273;25967;-75
2024/01/31 06:00:26;;;;;;;8.80;4.30;;;;;;;1.68;51.04;98076.73;108866;1269;22547;-75
2024/01/31 06:02:59;;;;;;;6.70;3.90;;;;;;;1.77;50.94;98081.37;108877;1273;22541;-75
2024/01/31 06:05:33;;;;;;;7.30;4.30;;;;;;;1.79;50.87;98073.10;108875;1273;25434;-75
2024/01/31 06:08:09;;;;;;;7.40;3.70;;;;;;;1.87;50.53;98069.40;108903;1273;22557;-75
2024/01/31 06:10:44;;;;;;;9.30;3.90;;;;;;;1.92;50.43;98067.55;108830;1265;22570;-75
2024/01/31 06:13:17;;;;;;;7.10;3.80;;;;;;;1.97;50.12;98066.27;108849;1273;22483;-75
2024/01/31 06:15:50;;;;;;;8.60;4.60;;;;;;;2.04;50.07;98068.11;108911;1269;22529;-75
2024/01/31 06:18:22;;;;;;;10.30;4.90;;;;;;;2.00;50.19;98071.02;108893;1272;22531;-75
2024/01/31 06:20:54;;;;;;;8.10;4.40;;;;;;;1.97;50.19;98068.29;108874;1272;22521;-75
2024/01/31 06:23:26;;;;;;;7.80;3.90;;;;;;;1.94;50.52;98072.52;108848;1272;23599;-75
2024/01/31 06:26:05;;;;;;;9.10;4.50;;;;;;;1.90;50.75;98079.24;108871;1266;22537;-75
2024/01/31 06:28:38;;;;;;;9.40;5.60;;;;;;;1.91;50.72;98079.38;108901;1272;22536;-75
2024/01/31 06:31:24;;;;;;;9.60;5.60;;;;;;;1.91;51.07;98080.41;108848;1274;22486;-75
2024/01/31 06:34:02;;;;;;;6.50;4.10;;;;;;;1.92;50.97;98076.77;108819;1272;25284;-75
2024/01/31 06:36:34;;;;;;;9.30;5.10;;;;;;;1.92;51.09;98079.86;108945;1270;24219;-75
2024/01/31 06:39:06;;;;;;;9.10;5.50;;;;;;;1.95;51.18;98077.19;108853;1272;22550;-75
2024/01/31 06:41:40;;;;;;;8.90;5.40;;;;;;;1.96;51.11;98075.23;108875;1269;22513;-75
2024/01/31 06:44:14;;;;;;;8.10;5.00;;;;;;;2.01;51.32;98084.88;108891;1272;22538;-75
2024/01/31 06:46:49;;;;;;;8.30;4.60;;;;;;;2.15;51.34;98087.16;108852;1272;22533;-75
2024/01/31 06:49:22;;;;;;;8.40;4.50;;;;;;;2.37;51.25;98083.59;108860;1266;23888;-75
2024/01/31 06:51:55;;;;;;;9.30;4.30;;;;;;;2.47;50.89;98082.34;108841;1269;22532;-75
2024/01/31 06:54:28;;;;;;;7.00;3.90;;;;;;;2.45;50.92;98083.21;108866;1272;22540;-75
2024/01/31 06:56:59;;;;;;;6.70;3.90;;;;;;;2.38;50.56;98072.60;108888;1270;22927;-75
2024/01/31 06:59:30;;;;;;;9.80;5.00;;;;;;;2.32;50.60;98073.33;108868;1272;22548;-75
2024/01/31 07:02:01;;;;;;;6.50;3.10;;;;;;;2.31;50.69;98073.58;108845;1267;22959;-75
2024/01/31 07:04:34;;;;;;;9.80;4.90;;;;;;;2.35;50.69;98075.97;108897;1269;22536;-75
2024/01/31 07:07:10;;;;;;;9.90;4.40;;;;;;;2.36;50.78;98074.80;108962;1270;22542;-75
2024/01/31 07:09:44;;;;;;;7.70;4.00;;;;;;;2.34;50.85;98066.22;108993;1266;24967;-75
2024/01/31 07:12:16;;;;;;;10.20;6.00;;;;;;;2.30;51.00;98072.39;109016;1272;22543;-75
2024/01/31 07:14:49;;;;;;;9.30;5.90;;;;;;;2.32;51.13;98074.58;108985;1272;22753;-75
2024/01/31 07:17:20;;;;;;;8.70;4.80;;;;;;;2.37;51.29;98079.40;108914;1272;23881;-75
2024/01/31 07:19:54;;;;;;;11.80;5.50;;;;;;;2.40;51.43;98079.27;108873;1267;22925;-75
2024/01/31 07:22:25;;;;;;;10.90;6.00;;;;;;;2.43;51.32;98081.19;108903;1273;22530;-75
2024/01/31 07:24:56;;;;;;;9.90;5.80;;;;;;;2.47;51.53;98087.55;108892;1272;22985;-75
2024/01/31 07:27:27;;;;;;;11.10;6.70;;;;;;;2.55;51.62;98094.98;108836;1269;25359;-75
2024/01/31 07:29:58;;;;;;;10.20;6.20;;;;;;;2.71;51.87;98096.64;108888;1270;23867;-75
2024/01/31 07:32:29;;;;;;;9.60;6.00;;;;;;;2.94;51.75;98100.23;108908;1270;22528;-75
2024/01/31 07:35:07;;;;;;;10.80;6.50;;;;;;;3.01;51.63;98100.90;108923;1273;22537;-75
2024/01/31 07:37:39;;;;;;;11.00;7.20;;;;;;;3.00;51.60;98106.23;108865;1273;22521;-75
2024/01/31 07:40:11;;;;;;;10.00;5.90;;;;;;;2.97;51.64;98109.16;108844;1272;22549;-75
2024/01/31 07:42:44;;;;;;;9.70;5.70;;;;;;;2.99;51.70;98113.92;108852;1273;22527;-75
2024/01/31 07:45:16;;;;;;;10.70;6.80;;;;;;;3.01;51.69;98118.85;108923;1273;22644;-75
2024/01/31 07:47:49;;;;;;;11.90;7.00;;;;;;;3.04;51.79;98122.16;108894;1272;23670;-75
2024/01/31 07:50:20;;;;;;;11.60;6.90;;;;;;;3.04;51.75;98125.86;108905;1272;23194;-75
2024/01/31 07:52:54;;;;;;;12.50;7.00;;;;;;;3.03;51.79;98123.48;108813;1267;31202;-75
2024/01/31 07:55:31;;;;;;;11.00;6.20;;;;;;;3.01;51.83;98124.33;108827;1274;22542;-75
2024/01/31 07:58:04;;;;;;;11.70;7.00;;;;;;;2.99;51.87;98126.33;108787;1273;22504;-74
2024/01/31 08:00:36;;;;;;;8.00;5.50;;;;;;;2.98;51.88;98124.08;108829;1270;22514;-75
2024/01/31 08:03:12;;;;;;;11.40;7.10;;;;;;;3.01;51.89;98119.77;108775;1267;23719;-75
2024/01/31 08:05:44;;;;;;;10.90;6.80;;;;;;;3.05;51.82;98120.67;108808;1274;22571;-74
2024/01/31 08:08:19;;;;;;;10.80;6.40;;;;;;;3.06;51.88;98121.20;108802;1274;22525;-74
2024/01/31 08:10:57;;;;;;;10.20;6.30;;;;;;;3.09;51.80;98125.77;108820;1273;22531;-74
2024/01/31 08:13:28;;;;;;;12.10;6.50;;;;;;;3.11;51.82;98130.07;108827;1275;22652;-75
2024/01/31 08:16:01;;;;;;;9.60;5.30;;;;;;;3.17;51.87;98133.05;108828;1273;24188;-74
2024/01/31 08:18:40;;;;;;;10.90;6.80;;;;;;;3.23;51.79;98134.65;108854;1274;24038;-75
2024/01/31 08:21:11;;;;;;;10.60;5.90;;;;;;;3.33;51.90;98132.10;108788;1274;22525;-74
2024/01/31 08:23:45;;;;;;;13.20;8.10;;;;;;;3.43;51.92;98130.59;108777;1270;24940;-74
2024/01/31 08:26:20;;;;;;;12.30;7.10;;;;;;;3.61;51.91;98126.95;108842;1270;22682;-75
2024/01/31 08:28:50;;;;;;;13.80;7.70;;;;;;;3.80;51.79;98127.69;108818;1274;23867;-74
2024/01/31 08:31:24;;;;;;;11.60;8.00;;;;;;;4.26;51.95;98125.98;108840;1275;23870;-75
2024/01/31 08:33:55;;;;;;;11.70;7.10;;;;;;;4.69;51.88;98126.15;108788;1274;25422;-75
2024/01/31 08:36:26;;;;;;;12.80;7.40;;;;;;;4.95;51.42;98129.29;108760;1274;23810;-75
2024/01/31 08:38:57;;;;;;;12.90;7.00;;;;;;;4.99;51.03;98134.61;108836;1251;22562;-75
2024/01/31 08:41:28;;;;;;;12.60;7.90;;;;;;;4.84;50.77;98134.80;108849;1270;22806;-75
2024/01/31 08:43:59;;;;;;;12.60;7.70;;;;;;;4.71;50.83;98137.19;108808;1268;22656;-75
2024/01/31 08:46:31;;;;;;;13.00;8.20;;;;;;;4.56;50.89;98139.61;108824;1267;22527;-75
2024/01/31 08:49:02;;;;;;;10.00;6.90;;;;;;;4.37;50.80;98141.86;108829;1273;24452;-75
2024/01/31 08:51:38;;;;;;;10.80;7.10;;;;;;;4.18;50.91;98135.66;108830;1265;24343;-75
2024/01/31 08:54:15;;;;;;;11.00;6.80;;;;;;;4.02;50.84;98131.80;108905;1267;25951;-74
2024/01/31 08:56:46;;;;;;;11.10;6.40;;;;;;;3.90;51.05;98130.88;108873;1266;22530;-74
2024/01/31 08:59:18;;;;;;;9.50;5.90;;;;;;;3.83;51.18;98129.90;108937;1270;22521;-75
2024/01/31 09:01:51;;;;;;;11.10;6.00;;;;;;;3.85;51.40;98128.85;108893;1273;22552;-75
2024/01/31 09:04:23;;;;;;;6.80;4.20;;;;;;;3.89;51.30;98131.55;108874;1273;23741;-74
2024/01/31 09:06:56;;;;;;;8.70;5.00;;;;;;;3.98;51.33;98123.88;108920;1273;22524;-75
2024/01/31 09:09:30;;;;;;;7.40;4.30;;;;;;;4.13;51.45;98119.84;108908;1273;22527;-75
2024/01/31 09:12:04;;;;;;;11.20;6.60;;;;;;;4.11;51.26;98122.89;108888;1272;22659;-75
2024/01/31 09:14:35;;;;;;;12.00;7.20;;;;;;;4.07;51.25;98126.27;108948;1267;22541;-75
2024/01/31 09:17:09;;;;;;;8.90;5.70;;;;;;;4.10;51.39;98124.42;108920;1273;22525;-74
2024/01/31 09:19:46;;;;;;;11.60;7.20;;;;;;;4.19;51.55;98129.04;108853;1267;22517;-75
2024/01/31 09:22:17;;;;;;;11.10;7.10;;;;;;;4.18;51.54;98128.98;108837;1273;22543;-74
2024/01/31 09:24:48;;;;;;;10.60;5.60;;;;;;;4.15;51.53;98125.04;108929;1267;22699;-75
2024/01/31 09:27:28;;;;;;;12.90;7.90;;;;;;;4.10;51.70;98128.11;108892;1273;23710;-75
2024/01/31 09:29:59;;;;;;;13.20;7.20;;;;;;;4.11;51.81;98131.50;108900;1267;22560;-75
2024/01/31 09:32:31;;;;;;;10.60;6.50;;;;;;;4.18;51.93;98130.20;108893;1273;25287;-75
2024/01/31 09:35:03;;;;;;;8.10;4.80;;;;;;;4.19;52.06;98127.02;108870;1273;22474;-75
2024/01/31 09:37:44;;;;;;;13.70;8.30;;;;;;;4.12;51.91;98129.55;108916;1269;23942;-75
2024/01/31 09:40:22;;;;;;;12.10;6.10;;;;;;;4.08;52.09;98129.46;108911;1267;22548;-75
2024/01/31 09:42:57;;;;;;;11.30;6.70;;;;;;;4.09;52.09;98132.13;108851;1266;24183;-75
2024/01/31 09:45:32;;;;;;;11.60;6.30;;;;;;;4.11;52.20;98130.94;108854;1273;22528;-75
2024/01/31 09:48:13;;;;;;;8.40;4.00;;;;;;;4.13;52.25;98124.27;108906;1251;22700;-75
2024/01/31 09:50:49;;;;;;;10.60;5.30;;;;;;;4.12;52.27;98127.50;108886;1273;22549;-74
2024/01/31 09:53:23;;;;;;;14.40;8.00;;;;;;;4.15;52.52;98126.61;108913;1272;24187;-75
2024/01/31 09:55:56;;;;;;;11.70;7.60;;;;;;;4.23;52.85;98122.78;108910;1272;22534;-75
2024/01/31 09:58:29;;;;;;;12.40;7.40;;;;;;;4.32;52.80;98123.16;108886;1273;23292;-75
2024/01/31 10:01:04;;;;;;;13.30;7.90;;;;;;;4.40;52.90;98121.44;108946;1269;22540;-75
2024/01/31 10:03:35;;;;;;;11.00;7.20;;;;;;;4.45;52.83;98126.19;108881;1267;22708;-74
2024/01/31 10:06:10;;;;;;;14.30;8.40;;;;;;;4.40;52.60;98124.02;108859;1272;22558;-76
2024/01/31 10:08:41;;;;;;;12.60;8.00;;;;;;;4.34;52.78;98119.31;108939;1266;22560;-75
2024/01/31 10:11:16;;;;;;;13.90;8.20;;;;;;;4.32;52.97;98113.98;108879;1272;24253;-74
2024/01/31 10:13:50;;;;;;;16.20;8.50;;;;;;;4.33;53.07;98115.44;108812;1272;22503;-74
2024/01/31 10:16:26;;;;;;;14.60;9.00;;;;;;;4.36;53.21;98110.59;108934;1249;22527;-74
2024/01/31 10:18:58;;;;;;;14.30;8.50;;;;;;;4.39;53.40;98100.59;108948;1272;23116;-74
2024/01/31 10:21:31;;;;;;;13.10;8.80;;;;;;;4.47;53.24;98100.45;108910;1267;22521;-75
2024/01/31 10:24:05;;;;;;;15.10;9.40;;;;;;;4.55;53.39;98093.64;108856;1267;24210;-75
2024/01/31 10:26:39;;;;;;;11.10;7.80;;;;;;;4.61;53.42;98095.64;108996;1272;22539;-75
2024/01/31 10:29:17;;;;;;;14.80;9.00;;;;;;;4.63;53.42;98093.34;108929;1272;22603;-75
2024/01/31 10:31:52;;;;;;;12.20;7.20;;;;;;;4.62;53.37;98098.71;108903;1272;22524;-75
2024/01/31 10:34:25;;;;;;;14.10;8.80;;;;;;;4.57;53.16;98092.30;108861;1267;22696;-75
2024/01/31 10:37:05;;;;;;;11.30;5.70;;;;;;;4.51;53.12;98092.83;108899;1268;25407;-75
2024/01/31 10:39:41;;;;;;;13.40;8.40;;;;;;;4.48;53.39;98092.05;108903;1267;22528;-75
2024/01/31 10:42:14;;;;;;;15.70;7.40;;;;;;;4.48;53.39;98095.28;108890;1272;25443;-75
2024/01/31 10:44:52;;;;;;;11.50;7.10;;;;;;;4.42;53.56;98089.27;108920;1272;22523;-75
2024/01/31 10:47:23;;;;;;;11.70;6.20;;;;;;;4.39;53.63;98084.95;108893;1270;22992;-75
2024/01/31 10:49:55;;;;;;;14.30;8.30;;;;;;;4.35;53.65;98086.52;108911;1272;22590;-75
2024/01/31 10:52:32;;;;;;;12.40;8.40;;;;;;;4.33;53.88;98082.89;108886;1272;24278;-75
2024/01/31 10:55:06;;;;;;;11.10;7.00;;;;;;;4.36;54.03;98083.61;108923;1256;22789;-75
2024/01/31 10:57:39;;;;;;;13.30;9.00;;;;;;;4.38;54.25;98079.35;108921;1272;22528;-75
2024/01/31 11:00:28;;;;;;;12.50;7.80;;;;;;;4.42;54.40;98081.23;108895;1272;22573;-74
2024/01/31 11:03:00;;;;;;;12.90;7.70;;;;;;;4.46;54.52;98080.17;108916;1266;22833;-75
2024/01/31 11:05:33;;;;;;;12.00;6.30;;;;;;;4.49;54.42;98076.30;108929;1272;25423;-75
2024/01/31 11:08:04;;;;;;;10.50;5.80;;;;;;;4.51;54.35;98068.87;108901;1272;22527;-75
2024/01/31 11:10:41;;;;;;;12.00;7.20;;;;;;;4.50;54.30;98071.08;108947;1270;22566;-74
2024/01/31 11:13:12;;;;;;;9.90;5.60;;;;;;;4.49;54.38;98067.33;108891;1272;22524;-75
2024/01/31 11:15:45;;;;;;;13.40;8.30;;;;;;;4.46;54.49;98063.16;108879;1272;25982;-75
2024/01/31 11:18:16;;;;;;;14.30;8.30;;;;;;;4.44;54.65;98065.73;108937;1266;22528;-74
2024/01/31 11:20:52;;;;;;;13.50;8.70;;;;;;;4.46;54.78;98064.95;108894;1272;22579;-75
2024/01/31 11:23:25;;;;;;;14.10;8.30;;;;;;;4.48;54.67;98062.56;108897;1272;25962;-75
2024/01/31 11:25:56;;;;;;;13.30;8.80;;;;;;;4.51;54.93;98061.48;108904;1268;24210;-75
2024/01/31 11:28:28;;;;;;;13.80;8.10;;;;;;;4.52;55.04;98060.44;108904;1266;22543;-75
2024/01/31 11:31:02;;;;;;;11.50;7.90;;;;;;;4.55;54.99;98055.58;108973;1272;22534;-75
2024/01/31 11:33:42;;;;;;;11.80;8.20;;;;;;;4.57;55.11;98052.46;108996;1267;25341;-75
2024/01/31 11:36:16;;;;;;;15.80;10.30;;;;;;;4.60;55.02;98048.41;108946;1267;22520;-75
2024/01/31 11:38:47;;;;;;;13.30;8.40;;;;;;;4.62;55.17;98041.65;108997;1271;22529;-75
2024/01/31 11:41:22;;;;;;;16.20;9.80;;;;;;;4.61;55.20;98040.67;108999;1270;23798;-75
2024/01/31 11:43:54;;;;;;;14.70;9.50;;;;;;;4.60;55.24;98033.45;108972;1272;24442;-75
2024/01/31 11:46:27;;;;;;;13.20;8.60;;;;;;;4.60;55.03;98030.67;108999;1270;22527;-75
2024/01/31 11:48:58;;;;;;;14.90;8.80;;;;;;;4.59;55.31;98029.02;108947;1272;22555;-75
2024/01/31 11:51:31;;;;;;;14.00;8.50;;;;;;;4.60;55.52;98026.83;109002;1272;22526;-75
2024/01/31 11:54:05;;;;;;;15.60;9.00;;;;;;;4.62;55.53;98025.65;108945;1272;22961;-75
2024/01/31 11:56:39;;;;;;;13.90;9.20;;;;;;;4.63;55.72;98028.11;108979;1272;23810;-75
2024/01/31 11:59:14;;;;;;;16.20;9.90;;;;;;;4.62;55.61;98028.64;108977;1266;22528;-75